sensor_id;sensor_type;location;lat;lon;timestamp;temperature;humidity
65406;DHT22;52016;51.228;-2.322;2022-10-16T00:03:41;13.10;68.20
65406;DHT22;52016;51.228;-2.322;2022-10-16T00:07:24;13.10;68.10
65406;DHT22;52016;51.228;-2.322;2022-10-16T00:11:21;13.10;68.10
65406;DHT22;52016;51.228;-2.322;2022-10-16T00:15:04;13.10;68.50
65406;DHT22;52016;51.228;-2.322;2022-10-16T00:18:47;13.10;68.00
65406;DHT22;52016;51.228;-2.322;2022-10-16T00:22:29;13.00;68.10
65406;DHT22;52016;51.228;-2.322;2022-10-16T00:26:13;13.00;68.10
65406;DHT22;52016;51.228;-2.322;2022-10-16T00:29:56;12.90;68.10
65406;DHT22;52016;51.228;-2.322;2022-10-16T00:33:40;12.90;68.00
65406;DHT22;52016;51.228;-2.322;2022-10-16T00:37:22;12.90;67.90
65406;DHT22;52016;51.228;-2.322;2022-10-16T00:41:05;12.90;67.80
65406;DHT22;52016;51.228;-2.322;2022-10-16T00:48:34;12.80;67.50
65406;DHT22;52016;51.228;-2.322;2022-10-16T00:52:16;12.80;67.40
65406;DHT22;52016;51.228;-2.322;2022-10-16T00:55:58;12.80;67.20
65406;DHT22;52016;51.228;-2.322;2022-10-16T00:59:42;12.80;66.90
65406;DHT22;52016;51.228;-2.322;2022-10-16T01:07:26;12.70;66.60
65406;DHT22;52016;51.228;-2.322;2022-10-16T01:11:26;12.70;66.50
65406;DHT22;52016;51.228;-2.322;2022-10-16T01:19:14;12.60;66.60
65406;DHT22;52016;51.228;-2.322;2022-10-16T01:23:27;12.50;66.70
65406;DHT22;52016;51.228;-2.322;2022-10-16T01:30:58;12.40;66.80
65406;DHT22;52016;51.228;-2.322;2022-10-16T01:34:49;12.40;66.90
65406;DHT22;52016;51.228;-2.322;2022-10-16T01:38:37;12.40;67.00
65406;DHT22;52016;51.228;-2.322;2022-10-16T01:42:26;12.30;67.10
65406;DHT22;52016;51.228;-2.322;2022-10-16T01:46:10;12.30;67.30
65406;DHT22;52016;51.228;-2.322;2022-10-16T01:49:56;12.30;67.40
65406;DHT22;52016;51.228;-2.322;2022-10-16T01:53:40;12.30;67.40
65406;DHT22;52016;51.228;-2.322;2022-10-16T01:57:24;12.20;67.50
65406;DHT22;52016;51.228;-2.322;2022-10-16T02:01:09;12.20;67.50
65406;DHT22;52016;51.228;-2.322;2022-10-16T02:04:57;12.10;67.60
65406;DHT22;52016;51.228;-2.322;2022-10-16T02:08:40;12.10;67.70
65406;DHT22;52016;51.228;-2.322;2022-10-16T02:12:28;12.10;67.70
65406;DHT22;52016;51.228;-2.322;2022-10-16T02:16:12;12.00;67.70
65406;DHT22;52016;51.228;-2.322;2022-10-16T02:19:56;12.00;67.80
65406;DHT22;52016;51.228;-2.322;2022-10-16T02:24:10;12.00;67.90
65406;DHT22;52016;51.228;-2.322;2022-10-16T02:28:11;12.00;68.40
65406;DHT22;52016;51.228;-2.322;2022-10-16T02:32:01;11.90;68.40
65406;DHT22;52016;51.228;-2.322;2022-10-16T02:35:45;11.90;68.30
65406;DHT22;52016;51.228;-2.322;2022-10-16T02:39:28;11.90;68.20
65406;DHT22;52016;51.228;-2.322;2022-10-16T02:43:11;11.90;68.30
65406;DHT22;52016;51.228;-2.322;2022-10-16T02:46:53;11.90;68.30
65406;DHT22;52016;51.228;-2.322;2022-10-16T02:50:36;11.80;68.30
65406;DHT22;52016;51.228;-2.322;2022-10-16T02:54:18;11.80;68.30
65406;DHT22;52016;51.228;-2.322;2022-10-16T02:58:00;11.70;68.50
65406;DHT22;52016;51.228;-2.322;2022-10-16T03:01:42;11.70;68.60
65406;DHT22;52016;51.228;-2.322;2022-10-16T03:05:24;11.70;68.60
65406;DHT22;52016;51.228;-2.322;2022-10-16T03:09:06;11.70;68.60
65406;DHT22;52016;51.228;-2.322;2022-10-16T03:12:48;11.70;68.60
65406;DHT22;52016;51.228;-2.322;2022-10-16T03:16:29;11.60;68.50
65406;DHT22;52016;51.228;-2.322;2022-10-16T03:20:12;11.70;68.60
65406;DHT22;52016;51.228;-2.322;2022-10-16T03:23:54;11.60;68.50
65406;DHT22;52016;51.228;-2.322;2022-10-16T03:27:36;11.60;68.60
65406;DHT22;52016;51.228;-2.322;2022-10-16T03:31:18;11.60;68.60
65406;DHT22;52016;51.228;-2.322;2022-10-16T03:35:00;11.50;68.60
65406;DHT22;52016;51.228;-2.322;2022-10-16T03:38:42;11.60;68.60
65406;DHT22;52016;51.228;-2.322;2022-10-16T03:42:24;11.60;68.50
65406;DHT22;52016;51.228;-2.322;2022-10-16T03:46:06;11.60;68.50
65406;DHT22;52016;51.228;-2.322;2022-10-16T03:49:48;11.50;68.50
65406;DHT22;52016;51.228;-2.322;2022-10-16T03:53:30;11.50;68.40
65406;DHT22;52016;51.228;-2.322;2022-10-16T03:57:12;11.50;68.40
65406;DHT22;52016;51.228;-2.322;2022-10-16T04:00:54;11.50;68.40
65406;DHT22;52016;51.228;-2.322;2022-10-16T04:04:36;11.40;68.40
65406;DHT22;52016;51.228;-2.322;2022-10-16T04:08:18;11.40;68.40
65406;DHT22;52016;51.228;-2.322;2022-10-16T04:12:00;11.40;68.40
65406;DHT22;52016;51.228;-2.322;2022-10-16T04:15:44;11.40;68.50
65406;DHT22;52016;51.228;-2.322;2022-10-16T04:19:26;11.30;68.40
65406;DHT22;52016;51.228;-2.322;2022-10-16T04:23:08;11.30;68.50
65406;DHT22;52016;51.228;-2.322;2022-10-16T04:26:50;11.30;68.50
65406;DHT22;52016;51.228;-2.322;2022-10-16T04:30:32;11.20;68.60
65406;DHT22;52016;51.228;-2.322;2022-10-16T04:34:15;11.20;68.60
65406;DHT22;52016;51.228;-2.322;2022-10-16T04:37:58;11.10;68.60
65406;DHT22;52016;51.228;-2.322;2022-10-16T04:41:40;11.10;68.60
65406;DHT22;52016;51.228;-2.322;2022-10-16T04:45:21;11.10;68.60
65406;DHT22;52016;51.228;-2.322;2022-10-16T04:49:04;11.10;68.60
65406;DHT22;52016;51.228;-2.322;2022-10-16T04:52:46;11.00;68.70
65406;DHT22;52016;51.228;-2.322;2022-10-16T04:56:28;11.00;68.70
65406;DHT22;52016;51.228;-2.322;2022-10-16T05:00:10;10.90;68.70
65406;DHT22;52016;51.228;-2.322;2022-10-16T05:03:52;10.90;68.70
65406;DHT22;52016;51.228;-2.322;2022-10-16T05:07:34;10.90;68.60
65406;DHT22;52016;51.228;-2.322;2022-10-16T05:11:16;10.80;68.70
65406;DHT22;52016;51.228;-2.322;2022-10-16T05:14:58;10.80;68.80
65406;DHT22;52016;51.228;-2.322;2022-10-16T05:18:40;10.80;69.20
65406;DHT22;52016;51.228;-2.322;2022-10-16T05:22:22;10.80;69.10
65406;DHT22;52016;51.228;-2.322;2022-10-16T05:26:04;10.70;69.20
65406;DHT22;52016;51.228;-2.322;2022-10-16T05:29:47;10.70;69.20
65406;DHT22;52016;51.228;-2.322;2022-10-16T05:33:29;10.70;69.30
65406;DHT22;52016;51.228;-2.322;2022-10-16T05:37:11;10.70;69.50
65406;DHT22;52016;51.228;-2.322;2022-10-16T05:40:54;10.70;69.80
65406;DHT22;52016;51.228;-2.322;2022-10-16T05:44:36;10.70;69.80
65406;DHT22;52016;51.228;-2.322;2022-10-16T05:48:18;10.70;69.90
65406;DHT22;52016;51.228;-2.322;2022-10-16T05:51:59;10.70;70.00
65406;DHT22;52016;51.228;-2.322;2022-10-16T05:55:41;10.70;69.90
65406;DHT22;52016;51.228;-2.322;2022-10-16T05:59:23;10.80;70.10
65406;DHT22;52016;51.228;-2.322;2022-10-16T06:03:05;10.80;70.20
65406;DHT22;52016;51.228;-2.322;2022-10-16T06:06:48;10.80;70.20
65406;DHT22;52016;51.228;-2.322;2022-10-16T06:10:30;10.70;70.10
65406;DHT22;52016;51.228;-2.322;2022-10-16T06:14:12;10.70;70.10
65406;DHT22;52016;51.228;-2.322;2022-10-16T06:17:54;10.70;70.30
65406;DHT22;52016;51.228;-2.322;2022-10-16T06:21:36;10.70;70.30
65406;DHT22;52016;51.228;-2.322;2022-10-16T06:25:18;10.60;70.40
65406;DHT22;52016;51.228;-2.322;2022-10-16T06:29:00;10.60;70.50
65406;DHT22;52016;51.228;-2.322;2022-10-16T06:32:42;10.60;70.50
65406;DHT22;52016;51.228;-2.322;2022-10-16T06:36:25;10.60;70.60
65406;DHT22;52016;51.228;-2.322;2022-10-16T06:40:07;10.50;70.60
65406;DHT22;52016;51.228;-2.322;2022-10-16T06:43:49;10.50;70.60
65406;DHT22;52016;51.228;-2.322;2022-10-16T06:47:31;10.50;70.80
65406;DHT22;52016;51.228;-2.322;2022-10-16T06:51:19;10.40;70.80
65406;DHT22;52016;51.228;-2.322;2022-10-16T06:55:01;10.40;70.90
65406;DHT22;52016;51.228;-2.322;2022-10-16T06:58:44;10.50;70.90
65406;DHT22;52016;51.228;-2.322;2022-10-16T07:02:27;10.50;70.80
65406;DHT22;52016;51.228;-2.322;2022-10-16T07:06:11;10.40;70.80
65406;DHT22;52016;51.228;-2.322;2022-10-16T07:09:53;10.40;70.80
65406;DHT22;52016;51.228;-2.322;2022-10-16T07:13:36;10.40;70.90
65406;DHT22;52016;51.228;-2.322;2022-10-16T07:17:19;10.40;70.80
65406;DHT22;52016;51.228;-2.322;2022-10-16T07:21:11;10.30;71.00
65406;DHT22;52016;51.228;-2.322;2022-10-16T07:24:53;10.30;71.20
65406;DHT22;52016;51.228;-2.322;2022-10-16T07:28:36;10.30;71.30
65406;DHT22;52016;51.228;-2.322;2022-10-16T07:32:18;10.40;71.30
65406;DHT22;52016;51.228;-2.322;2022-10-16T07:36:00;10.40;71.30
65406;DHT22;52016;51.228;-2.322;2022-10-16T07:39:42;10.50;71.40
65406;DHT22;52016;51.228;-2.322;2022-10-16T07:43:24;10.60;71.50
65406;DHT22;52016;51.228;-2.322;2022-10-16T07:47:07;10.60;71.50
65406;DHT22;52016;51.228;-2.322;2022-10-16T07:50:49;10.70;71.50
65406;DHT22;52016;51.228;-2.322;2022-10-16T07:54:31;10.80;71.60
65406;DHT22;52016;51.228;-2.322;2022-10-16T07:58:13;10.80;71.60
65406;DHT22;52016;51.228;-2.322;2022-10-16T08:01:54;10.90;71.60
65406;DHT22;52016;51.228;-2.322;2022-10-16T08:05:36;10.90;71.60
65406;DHT22;52016;51.228;-2.322;2022-10-16T08:09:18;11.00;71.70
65406;DHT22;52016;51.228;-2.322;2022-10-16T08:13:00;11.00;71.60
65406;DHT22;52016;51.228;-2.322;2022-10-16T08:16:42;11.10;71.60
65406;DHT22;52016;51.228;-2.322;2022-10-16T08:20:26;11.10;71.90
65406;DHT22;52016;51.228;-2.322;2022-10-16T08:24:08;11.20;71.80
65406;DHT22;52016;51.228;-2.322;2022-10-16T08:27:51;11.30;71.90
65406;DHT22;52016;51.228;-2.322;2022-10-16T08:31:33;11.40;72.10
65406;DHT22;52016;51.228;-2.322;2022-10-16T08:35:15;11.50;71.90
65406;DHT22;52016;51.228;-2.322;2022-10-16T08:38:58;11.60;71.90
65406;DHT22;52016;51.228;-2.322;2022-10-16T08:50:38;11.90;71.60
65406;DHT22;52016;51.228;-2.322;2022-10-16T08:58:28;12.00;71.70
65406;DHT22;52016;51.228;-2.322;2022-10-16T09:02:31;12.10;72.20
65406;DHT22;52016;51.228;-2.322;2022-10-16T09:18:32;12.60;71.60
65406;DHT22;52016;51.228;-2.322;2022-10-16T09:22:17;12.70;71.50
65406;DHT22;52016;51.228;-2.322;2022-10-16T09:25:59;12.80;71.30
65406;DHT22;52016;51.228;-2.322;2022-10-16T09:29:41;12.90;71.30
65406;DHT22;52016;51.228;-2.322;2022-10-16T09:33:28;12.90;71.30
65406;DHT22;52016;51.228;-2.322;2022-10-16T09:37:14;13.10;71.10
65406;DHT22;52016;51.228;-2.322;2022-10-16T09:41:00;13.10;71.10
65406;DHT22;52016;51.228;-2.322;2022-10-16T09:44:48;13.30;71.00
65406;DHT22;52016;51.228;-2.322;2022-10-16T09:48:43;13.40;70.90
65406;DHT22;52016;51.228;-2.322;2022-10-16T09:52:26;13.40;70.70
65406;DHT22;52016;51.228;-2.322;2022-10-16T10:00:27;13.60;70.60
65406;DHT22;52016;51.228;-2.322;2022-10-16T10:04:10;13.80;70.40
65406;DHT22;52016;51.228;-2.322;2022-10-16T10:08:06;13.80;70.30
65406;DHT22;52016;51.228;-2.322;2022-10-16T10:11:55;13.90;70.00
65406;DHT22;52016;51.228;-2.322;2022-10-16T10:15:41;14.00;69.80
65406;DHT22;52016;51.228;-2.322;2022-10-16T10:19:24;14.10;69.50
65406;DHT22;52016;51.228;-2.322;2022-10-16T10:23:23;14.20;69.60
65406;DHT22;52016;51.228;-2.322;2022-10-16T10:27:15;14.30;69.20
65406;DHT22;52016;51.228;-2.322;2022-10-16T10:31:11;14.40;68.90
65406;DHT22;52016;51.228;-2.322;2022-10-16T10:38:50;14.60;69.10
65406;DHT22;52016;51.228;-2.322;2022-10-16T10:43:24;14.60;68.90
65406;DHT22;52016;51.228;-2.322;2022-10-16T10:46:51;14.80;68.40
65406;DHT22;52016;51.228;-2.322;2022-10-16T10:54:46;14.90;67.80
65406;DHT22;52016;51.228;-2.322;2022-10-16T11:02:43;15.30;66.50
65406;DHT22;52016;51.228;-2.322;2022-10-16T11:06:32;15.30;67.20
65406;DHT22;52016;51.228;-2.322;2022-10-16T11:10:20;15.40;68.20
65406;DHT22;52016;51.228;-2.322;2022-10-16T11:18:08;15.90;67.10
65406;DHT22;52016;51.228;-2.322;2022-10-16T11:22:30;16.10;67.40
65406;DHT22;52016;51.228;-2.322;2022-10-16T11:26:19;16.40;65.20
65406;DHT22;52016;51.228;-2.322;2022-10-16T11:30:08;16.80;66.90
65406;DHT22;52016;51.228;-2.322;2022-10-16T11:38:26;17.10;62.40
65406;DHT22;52016;51.228;-2.322;2022-10-16T11:42:18;17.10;63.00
65406;DHT22;52016;51.228;-2.322;2022-10-16T11:46:15;17.30;63.40
65406;DHT22;52016;51.228;-2.322;2022-10-16T11:50:03;17.50;61.00
65406;DHT22;52016;51.228;-2.322;2022-10-16T12:02:16;18.50;62.80
65406;DHT22;52016;51.228;-2.322;2022-10-16T12:06:28;18.70;59.50
65406;DHT22;52016;51.228;-2.322;2022-10-16T12:10:24;18.40;57.50
65406;DHT22;52016;51.228;-2.322;2022-10-16T12:17:53;18.60;61.70
65406;DHT22;52016;51.228;-2.322;2022-10-16T12:21:36;18.70;59.80
65406;DHT22;52016;51.228;-2.322;2022-10-16T12:25:39;18.90;58.80
65406;DHT22;52016;51.228;-2.322;2022-10-16T12:29:39;18.70;56.80
65406;DHT22;52016;51.228;-2.322;2022-10-16T12:33:28;18.60;57.60
65406;DHT22;52016;51.228;-2.322;2022-10-16T12:41:08;18.60;55.90
65406;DHT22;52016;51.228;-2.322;2022-10-16T12:44:51;18.80;59.10
65406;DHT22;52016;51.228;-2.322;2022-10-16T12:48:34;18.90;59.40
65406;DHT22;52016;51.228;-2.322;2022-10-16T12:52:38;19.10;59.80
65406;DHT22;52016;51.228;-2.322;2022-10-16T12:56:26;19.20;59.30
65406;DHT22;52016;51.228;-2.322;2022-10-16T13:00:32;19.40;58.30
65406;DHT22;52016;51.228;-2.322;2022-10-16T13:04:44;19.70;55.90
65406;DHT22;52016;51.228;-2.322;2022-10-16T13:12:49;20.30;56.00
65406;DHT22;52016;51.228;-2.322;2022-10-16T13:16:46;20.40;50.80
65406;DHT22;52016;51.228;-2.322;2022-10-16T13:28:42;21.00;53.60
65406;DHT22;52016;51.228;-2.322;2022-10-16T13:32:24;20.80;54.80
65406;DHT22;52016;51.228;-2.322;2022-10-16T13:36:17;20.70;54.80
65406;DHT22;52016;51.228;-2.322;2022-10-16T13:40:19;20.50;54.70
65406;DHT22;52016;51.228;-2.322;2022-10-16T13:44:01;20.20;51.10
65406;DHT22;52016;51.228;-2.322;2022-10-16T13:47:43;19.90;54.10
65406;DHT22;52016;51.228;-2.322;2022-10-16T13:51:26;19.60;53.80
65406;DHT22;52016;51.228;-2.322;2022-10-16T13:55:14;19.30;53.70
65406;DHT22;52016;51.228;-2.322;2022-10-16T13:59:21;18.90;53.50
65406;DHT22;52016;51.228;-2.322;2022-10-16T14:03:06;18.60;54.00
65406;DHT22;52016;51.228;-2.322;2022-10-16T14:06:50;18.40;55.10
65406;DHT22;52016;51.228;-2.322;2022-10-16T14:10:33;18.20;55.60
65406;DHT22;52016;51.228;-2.322;2022-10-16T14:14:15;18.00;56.10
65406;DHT22;52016;51.228;-2.322;2022-10-16T14:17:58;17.90;56.60
65406;DHT22;52016;51.228;-2.322;2022-10-16T14:21:40;17.80;57.00
65406;DHT22;52016;51.228;-2.322;2022-10-16T14:25:28;17.80;57.20
65406;DHT22;52016;51.228;-2.322;2022-10-16T14:29:17;17.70;57.50
65406;DHT22;52016;51.228;-2.322;2022-10-16T14:33:03;17.70;57.70
65406;DHT22;52016;51.228;-2.322;2022-10-16T14:36:45;17.60;57.90
65406;DHT22;52016;51.228;-2.322;2022-10-16T14:40:32;17.60;58.00
65406;DHT22;52016;51.228;-2.322;2022-10-16T14:44:15;17.60;58.30
65406;DHT22;52016;51.228;-2.322;2022-10-16T14:48:17;17.60;59.50
65406;DHT22;52016;51.228;-2.322;2022-10-16T14:52:01;17.60;59.70
65406;DHT22;52016;51.228;-2.322;2022-10-16T14:55:44;17.40;59.20
65406;DHT22;52016;51.228;-2.322;2022-10-16T14:59:37;17.40;59.60
65406;DHT22;52016;51.228;-2.322;2022-10-16T15:03:20;17.30;60.40
65406;DHT22;52016;51.228;-2.322;2022-10-16T15:07:02;17.20;60.40
65406;DHT22;52016;51.228;-2.322;2022-10-16T15:10:44;17.10;60.50
65406;DHT22;52016;51.228;-2.322;2022-10-16T15:14:26;17.10;60.50
65406;DHT22;52016;51.228;-2.322;2022-10-16T15:18:08;17.00;60.90
65406;DHT22;52016;51.228;-2.322;2022-10-16T15:21:50;16.90;61.10
65406;DHT22;52016;51.228;-2.322;2022-10-16T15:25:38;17.00;61.10
65406;DHT22;52016;51.228;-2.322;2022-10-16T15:29:23;16.90;61.90
65406;DHT22;52016;51.228;-2.322;2022-10-16T15:33:11;16.90;61.70
65406;DHT22;52016;51.228;-2.322;2022-10-16T15:36:54;16.80;62.60
65406;DHT22;52016;51.228;-2.322;2022-10-16T15:40:36;16.70;63.50
65406;DHT22;52016;51.228;-2.322;2022-10-16T15:44:20;16.70;63.00
65406;DHT22;52016;51.228;-2.322;2022-10-16T15:48:02;16.70;63.10
65406;DHT22;52016;51.228;-2.322;2022-10-16T15:51:44;16.70;63.40
65406;DHT22;52016;51.228;-2.322;2022-10-16T15:55:27;16.70;64.30
65406;DHT22;52016;51.228;-2.322;2022-10-16T15:59:10;16.60;64.20
65406;DHT22;52016;51.228;-2.322;2022-10-16T16:02:53;16.50;64.50
65406;DHT22;52016;51.228;-2.322;2022-10-16T16:06:35;16.40;65.10
65406;DHT22;52016;51.228;-2.322;2022-10-16T16:10:19;16.40;65.60
65406;DHT22;52016;51.228;-2.322;2022-10-16T16:14:02;16.30;65.90
65406;DHT22;52016;51.228;-2.322;2022-10-16T16:17:44;16.20;67.00
65406;DHT22;52016;51.228;-2.322;2022-10-16T16:21:26;16.20;67.30
65406;DHT22;52016;51.228;-2.322;2022-10-16T16:25:08;16.10;68.40
65406;DHT22;52016;51.228;-2.322;2022-10-16T16:28:50;16.00;69.00
65406;DHT22;52016;51.228;-2.322;2022-10-16T16:32:34;15.90;69.60
65406;DHT22;52016;51.228;-2.322;2022-10-16T16:36:16;15.80;69.60
65406;DHT22;52016;51.228;-2.322;2022-10-16T16:39:59;15.70;71.20
65406;DHT22;52016;51.228;-2.322;2022-10-16T16:43:41;15.70;71.10
65406;DHT22;52016;51.228;-2.322;2022-10-16T16:47:23;15.60;71.70
65406;DHT22;52016;51.228;-2.322;2022-10-16T16:51:08;15.50;72.30
65406;DHT22;52016;51.228;-2.322;2022-10-16T16:54:50;15.40;72.10
65406;DHT22;52016;51.228;-2.322;2022-10-16T16:58:33;15.40;74.30
65406;DHT22;52016;51.228;-2.322;2022-10-16T17:02:15;15.30;72.40
65406;DHT22;52016;51.228;-2.322;2022-10-16T17:06:03;15.30;72.20
65406;DHT22;52016;51.228;-2.322;2022-10-16T17:09:45;15.30;73.50
65406;DHT22;52016;51.228;-2.322;2022-10-16T17:13:29;15.20;73.90
65406;DHT22;52016;51.228;-2.322;2022-10-16T17:17:11;15.20;73.60
65406;DHT22;52016;51.228;-2.322;2022-10-16T17:20:54;15.10;74.00
65406;DHT22;52016;51.228;-2.322;2022-10-16T17:24:35;15.10;73.80
65406;DHT22;52016;51.228;-2.322;2022-10-16T17:28:17;15.10;75.60
65406;DHT22;52016;51.228;-2.322;2022-10-16T17:31:59;15.00;75.90
65406;DHT22;52016;51.228;-2.322;2022-10-16T17:35:44;15.00;75.20
65406;DHT22;52016;51.228;-2.322;2022-10-16T17:39:26;15.00;75.50
65406;DHT22;52016;51.228;-2.322;2022-10-16T17:43:08;15.00;75.00
65406;DHT22;52016;51.228;-2.322;2022-10-16T17:46:52;15.00;75.40
65406;DHT22;52016;51.228;-2.322;2022-10-16T17:50:40;15.00;75.20
65406;DHT22;52016;51.228;-2.322;2022-10-16T17:54:22;15.00;76.00
65406;DHT22;52016;51.228;-2.322;2022-10-16T17:58:04;15.00;76.00
65406;DHT22;52016;51.228;-2.322;2022-10-16T18:01:46;15.00;76.10
65406;DHT22;52016;51.228;-2.322;2022-10-16T18:05:28;15.00;76.50
65406;DHT22;52016;51.228;-2.322;2022-10-16T18:09:12;15.00;76.40
65406;DHT22;52016;51.228;-2.322;2022-10-16T18:12:55;15.00;76.90
65406;DHT22;52016;51.228;-2.322;2022-10-16T18:16:37;15.00;77.40
65406;DHT22;52016;51.228;-2.322;2022-10-16T18:20:20;15.00;77.20
65406;DHT22;52016;51.228;-2.322;2022-10-16T18:24:02;15.00;78.20
65406;DHT22;52016;51.228;-2.322;2022-10-16T18:27:44;15.00;79.80
65406;DHT22;52016;51.228;-2.322;2022-10-16T18:31:27;15.10;77.90
65406;DHT22;52016;51.228;-2.322;2022-10-16T18:35:09;15.10;78.10
65406;DHT22;52016;51.228;-2.322;2022-10-16T18:38:51;15.20;78.30
65406;DHT22;52016;51.228;-2.322;2022-10-16T18:42:34;15.20;78.90
65406;DHT22;52016;51.228;-2.322;2022-10-16T18:46:18;15.20;80.70
65406;DHT22;52016;51.228;-2.322;2022-10-16T18:50:00;15.20;80.20
65406;DHT22;52016;51.228;-2.322;2022-10-16T18:53:43;15.30;81.00
65406;DHT22;52016;51.228;-2.322;2022-10-16T18:57:29;15.30;81.10
65406;DHT22;52016;51.228;-2.322;2022-10-16T19:01:13;15.30;81.00
65406;DHT22;52016;51.228;-2.322;2022-10-16T19:04:57;15.30;81.70
65406;DHT22;52016;51.228;-2.322;2022-10-16T19:08:45;15.30;81.50
65406;DHT22;52016;51.228;-2.322;2022-10-16T19:12:27;15.30;82.40
65406;DHT22;52016;51.228;-2.322;2022-10-16T19:16:13;15.30;82.30
65406;DHT22;52016;51.228;-2.322;2022-10-16T19:20:04;15.40;82.50
65406;DHT22;52016;51.228;-2.322;2022-10-16T19:23:51;15.40;82.60
65406;DHT22;52016;51.228;-2.322;2022-10-16T19:27:33;15.40;84.50
65406;DHT22;52016;51.228;-2.322;2022-10-16T19:31:18;15.40;84.70
65406;DHT22;52016;51.228;-2.322;2022-10-16T19:35:00;15.50;82.60
65406;DHT22;52016;51.228;-2.322;2022-10-16T19:38:43;15.50;82.70
65406;DHT22;52016;51.228;-2.322;2022-10-16T19:42:25;15.60;82.80
65406;DHT22;52016;51.228;-2.322;2022-10-16T19:46:10;15.60;84.80
65406;DHT22;52016;51.228;-2.322;2022-10-16T19:49:52;15.70;82.70
65406;DHT22;52016;51.228;-2.322;2022-10-16T19:53:35;15.70;82.20
65406;DHT22;52016;51.228;-2.322;2022-10-16T19:57:18;15.70;82.10
65406;DHT22;52016;51.228;-2.322;2022-10-16T20:01:00;15.80;82.70
65406;DHT22;52016;51.228;-2.322;2022-10-16T20:04:42;15.80;82.90
65406;DHT22;52016;51.228;-2.322;2022-10-16T20:08:24;15.80;83.00
65406;DHT22;52016;51.228;-2.322;2022-10-16T20:12:06;15.90;83.10
65406;DHT22;52016;51.228;-2.322;2022-10-16T20:15:48;15.90;84.40
65406;DHT22;52016;51.228;-2.322;2022-10-16T20:19:31;16.00;82.60
65406;DHT22;52016;51.228;-2.322;2022-10-16T20:23:13;16.00;82.40
65406;DHT22;52016;51.228;-2.322;2022-10-16T20:26:55;16.10;82.80
65406;DHT22;52016;51.228;-2.322;2022-10-16T20:30:42;16.10;83.00
65406;DHT22;52016;51.228;-2.322;2022-10-16T20:34:24;16.10;82.70
65406;DHT22;52016;51.228;-2.322;2022-10-16T20:38:07;16.10;82.60
65406;DHT22;52016;51.228;-2.322;2022-10-16T20:41:49;16.10;82.40
65406;DHT22;52016;51.228;-2.322;2022-10-16T20:45:31;16.20;82.70
65406;DHT22;52016;51.228;-2.322;2022-10-16T20:49:13;16.20;82.60
65406;DHT22;52016;51.228;-2.322;2022-10-16T20:53:15;16.20;82.80
65406;DHT22;52016;51.228;-2.322;2022-10-16T20:56:57;16.20;82.90
65406;DHT22;52016;51.228;-2.322;2022-10-16T21:00:39;16.20;82.90
65406;DHT22;52016;51.228;-2.322;2022-10-16T21:04:21;16.20;82.90
65406;DHT22;52016;51.228;-2.322;2022-10-16T21:08:03;16.20;82.80
65406;DHT22;52016;51.228;-2.322;2022-10-16T21:11:46;16.20;82.90
65406;DHT22;52016;51.228;-2.322;2022-10-16T21:15:28;16.20;82.80
65406;DHT22;52016;51.228;-2.322;2022-10-16T21:19:10;16.20;82.40
65406;DHT22;52016;51.228;-2.322;2022-10-16T21:22:52;16.20;82.40
65406;DHT22;52016;51.228;-2.322;2022-10-16T21:26:34;16.20;82.50
65406;DHT22;52016;51.228;-2.322;2022-10-16T21:30:16;16.20;82.60
65406;DHT22;52016;51.228;-2.322;2022-10-16T21:33:59;16.20;82.40
65406;DHT22;52016;51.228;-2.322;2022-10-16T21:37:41;16.20;82.40
65406;DHT22;52016;51.228;-2.322;2022-10-16T21:41:26;16.20;82.30
65406;DHT22;52016;51.228;-2.322;2022-10-16T21:45:08;16.20;82.40
65406;DHT22;52016;51.228;-2.322;2022-10-16T21:48:54;16.20;82.30
65406;DHT22;52016;51.228;-2.322;2022-10-16T21:52:36;16.20;82.30
65406;DHT22;52016;51.228;-2.322;2022-10-16T21:56:18;16.20;82.20
65406;DHT22;52016;51.228;-2.322;2022-10-16T22:00:01;16.20;82.00
65406;DHT22;52016;51.228;-2.322;2022-10-16T22:03:47;16.20;82.20
65406;DHT22;52016;51.228;-2.322;2022-10-16T22:07:29;16.10;82.00
65406;DHT22;52016;51.228;-2.322;2022-10-16T22:11:15;16.10;82.10
65406;DHT22;52016;51.228;-2.322;2022-10-16T22:15:03;16.10;82.00
65406;DHT22;52016;51.228;-2.322;2022-10-16T22:18:45;16.10;82.00
65406;DHT22;52016;51.228;-2.322;2022-10-16T22:22:27;16.00;82.20
65406;DHT22;52016;51.228;-2.322;2022-10-16T22:26:10;16.10;82.10
65406;DHT22;52016;51.228;-2.322;2022-10-16T22:29:53;16.00;82.00
65406;DHT22;52016;51.228;-2.322;2022-10-16T22:33:34;16.10;82.00
65406;DHT22;52016;51.228;-2.322;2022-10-16T22:37:16;16.00;81.90
65406;DHT22;52016;51.228;-2.322;2022-10-16T22:41:03;16.00;81.90
65406;DHT22;52016;51.228;-2.322;2022-10-16T22:44:46;16.00;81.90
65406;DHT22;52016;51.228;-2.322;2022-10-16T22:48:28;15.90;81.80
65406;DHT22;52016;51.228;-2.322;2022-10-16T22:52:10;16.00;81.80
65406;DHT22;52016;51.228;-2.322;2022-10-16T22:55:52;16.00;81.80
65406;DHT22;52016;51.228;-2.322;2022-10-16T22:59:34;16.00;81.70
65406;DHT22;52016;51.228;-2.322;2022-10-16T23:03:17;15.90;81.60
65406;DHT22;52016;51.228;-2.322;2022-10-16T23:06:59;15.90;81.50
65406;DHT22;52016;51.228;-2.322;2022-10-16T23:10:43;15.90;81.50
65406;DHT22;52016;51.228;-2.322;2022-10-16T23:14:25;15.90;81.50
65406;DHT22;52016;51.228;-2.322;2022-10-16T23:18:08;15.90;81.50
65406;DHT22;52016;51.228;-2.322;2022-10-16T23:21:50;15.80;81.40
65406;DHT22;52016;51.228;-2.322;2022-10-16T23:25:32;15.80;81.40
65406;DHT22;52016;51.228;-2.322;2022-10-16T23:29:14;15.80;81.30
65406;DHT22;52016;51.228;-2.322;2022-10-16T23:32:56;15.70;81.20
65406;DHT22;52016;51.228;-2.322;2022-10-16T23:36:38;15.70;81.40
65406;DHT22;52016;51.228;-2.322;2022-10-16T23:40:20;15.70;81.40
65406;DHT22;52016;51.228;-2.322;2022-10-16T23:44:03;15.70;81.40
65406;DHT22;52016;51.228;-2.322;2022-10-16T23:47:47;15.70;81.40
65406;DHT22;52016;51.228;-2.322;2022-10-16T23:51:30;15.70;81.40
65406;DHT22;52016;51.228;-2.322;2022-10-16T23:55:12;15.70;81.40
65406;DHT22;52016;51.228;-2.322;2022-10-16T23:58:54;15.70;81.40
